Nanticoke — VCQL — position and weather

sailwx.info

Track history (hours):
 
Tides and Currents Weather Stations Pressure Air Temp Water Temp Dewpoint Dewpoint Depression Visibility Wind Speed Wind Dir Waves Ship Positions

Nanticoke

Last reported at 2015-Jul-11 11:04 UTC. Time now 2015-Aug-01 09:48 UTC.
Position N 46°50' W 071°07'.
Warning: this ship's position is 20 days out of date.

Length 222 m; draft 7.3 m.

Type: Cargo ship. MMSI: 316043000.

Date/timePositionNaut miles runAvg speedWind from/ knotsBaromVisibWave heightAir tempDewpointWater temp
2015-Jul-11 11:04N 46°50' W 071°07'  
2015-Jul-07 04:07N 49°10' W 058°23'712.4
2015-Jul-07 03:33N 49°05' W 058°15'1010.5
2015-Jul-07 02:34N 48°59' W 058°02'4 4.0
2015-Jul-07 01:33N 48°58' W 057°56'0 0.0
2015-Jul-07 00:33N 48°58' W 057°56'0 0.0
2015-Jul-06 23:33N 48°58' W 057°56'0 0.0
2015-Jul-06 22:33N 48°58' W 057°56'0 0.0
2015-Jul-06 21:33N 48°58' W 057°56'0 0.0
2015-Jul-06 20:33N 48°58' W 057°56'0 0.0
2015-Jul-06 19:33N 48°58' W 057°56'0 0.0
2015-Jul-06 18:33N 48°58' W 057°56'0 0.0
2015-Jul-06 17:33N 48°58' W 057°56'0 0.0
2015-Jul-06 16:33N 48°58' W 057°56'0 0.0
2015-Jul-06 15:33N 48°58' W 057°56'0 0.0
2015-Jul-06 14:33N 48°58' W 057°56'0 0.0
2015-Jul-06 13:33N 48°58' W 057°56'0 0.0
2015-Jul-06 12:33N 48°58' W 057°56'0 0.0
2015-Jul-06 11:33N 48°58' W 057°56'0 0.0
2015-Jul-06 10:33N 48°58' W 057°56'0 0.0
2015-Jul-06 09:33N 48°58' W 057°56'0 0.0
2015-Jul-06 08:33N 48°58' W 057°56'0 0.0
2015-Jul-06 07:33N 48°58' W 057°56'0 0.0
2015-Jul-06 06:33N 48°58' W 057°56'0 0.0
2015-Jul-06 05:33N 48°58' W 057°56'0 0.0
2015-Jul-06 04:33N 48°58' W 057°56'0 0.0
2015-Jul-06 03:33N 48°58' W 057°56'0 0.0
2015-Jul-06 02:33N 48°58' W 057°56'0 0.0
2015-Jul-06 01:33N 48°58' W 057°56'0 0.0
2015-Jul-06 00:33N 48°58' W 057°56'0 0.0
2015-Jul-05 23:33N 48°58' W 057°56'0 0.0
2015-Jul-05 22:33N 48°58' W 057°56'0 0.0
2015-Jul-05 21:33N 48°58' W 057°56'0 0.0
2015-Jul-05 20:33N 48°58' W 057°56'0 0.0
2015-Jul-05 19:33N 48°58' W 057°56'4 4.0
2015-Jul-05 18:33N 48°59' W 058°02'10 9.5
2015-Jul-05 17:33N 49°05' W 058°14'  
2015-Jul-03 02:23N 47°13' W 052°28'1311.8
2015-Jul-03 01:19N 47°25' W 052°24'910.0
2015-Jul-03 00:22N 47°34' W 052°23'910.7
2015-Jul-02 23:32N 47°43' W 052°25'31 2.2
2015-Jul-02 09:27N 47°38' W 053°11'0 0.2
2015-Jul-02 08:29N 47°38' W 053°11'0 0.0
2015-Jul-02 07:26N 47°38' W 053°11'0 0.0
2015-Jul-02 03:29N 47°38' W 053°11'0 0.0
2015-Jul-02 02:33N 47°38' W 053°11'0 0.2
2015-Jul-02 01:17N 47°38' W 053°11'25 6.6
2015-Jul-01 21:29N 47°32' W 052°35'1111.8
2015-Jul-01 20:31N 47°20' W 052°38'  
Track history (hours):
 
Tides and Currents Weather Stations Pressure Air Temp Water Temp Dewpoint Dewpoint Depression Visibility Wind Speed Wind Dir Waves Ship Positions

Nanticoke

Last reported at 2015-Jul-11 11:04 UTC. Time now 2015-Aug-01 09:48 UTC.
Position N 46°50' W 071°07'.
Warning: this ship's position is 20 days out of date.

Length 222 m; draft 7.3 m.

Type: Cargo ship. MMSI: 316043000.

Date/timePositionNaut miles runAvg speedWind from/ knotsBaromVisibWave heightAir tempDewpointWater temp
2015-Jul-11 11:04N 46°50' W 071°07'  
2015-Jul-07 04:07N 49°10' W 058°23'712.4
2015-Jul-07 03:33N 49°05' W 058°15'1010.5
2015-Jul-07 02:34N 48°59' W 058°02'4 4.0
2015-Jul-07 01:33N 48°58' W 057°56'0 0.0
2015-Jul-07 00:33N 48°58' W 057°56'0 0.0
2015-Jul-06 23:33N 48°58' W 057°56'0 0.0
2015-Jul-06 22:33N 48°58' W 057°56'0 0.0
2015-Jul-06 21:33N 48°58' W 057°56'0 0.0
2015-Jul-06 20:33N 48°58' W 057°56'0 0.0
2015-Jul-06 19:33N 48°58' W 057°56'0 0.0
2015-Jul-06 18:33N 48°58' W 057°56'0 0.0
2015-Jul-06 17:33N 48°58' W 057°56'0 0.0
2015-Jul-06 16:33N 48°58' W 057°56'0 0.0
2015-Jul-06 15:33N 48°58' W 057°56'0 0.0
2015-Jul-06 14:33N 48°58' W 057°56'0 0.0
2015-Jul-06 13:33N 48°58' W 057°56'0 0.0
2015-Jul-06 12:33N 48°58' W 057°56'0 0.0
2015-Jul-06 11:33N 48°58' W 057°56'0 0.0
2015-Jul-06 10:33N 48°58' W 057°56'0 0.0
2015-Jul-06 09:33N 48°58' W 057°56'0 0.0
2015-Jul-06 08:33N 48°58' W 057°56'0 0.0
2015-Jul-06 07:33N 48°58' W 057°56'0 0.0
2015-Jul-06 06:33N 48°58' W 057°56'0 0.0
2015-Jul-06 05:33N 48°58' W 057°56'0 0.0
2015-Jul-06 04:33N 48°58' W 057°56'0 0.0
2015-Jul-06 03:33N 48°58' W 057°56'0 0.0
2015-Jul-06 02:33N 48°58' W 057°56'0 0.0
2015-Jul-06 01:33N 48°58' W 057°56'0 0.0
2015-Jul-06 00:33N 48°58' W 057°56'0 0.0
2015-Jul-05 23:33N 48°58' W 057°56'0 0.0
2015-Jul-05 22:33N 48°58' W 057°56'0 0.0
2015-Jul-05 21:33N 48°58' W 057°56'0 0.0
2015-Jul-05 20:33N 48°58' W 057°56'0 0.0
2015-Jul-05 19:33N 48°58' W 057°56'4 4.0
2015-Jul-05 18:33N 48°59' W 058°02'10 9.5
2015-Jul-05 17:33N 49°05' W 058°14'  
2015-Jul-03 02:23N 47°13' W 052°28'1311.8
2015-Jul-03 01:19N 47°25' W 052°24'910.0
2015-Jul-03 00:22N 47°34' W 052°23'910.7
2015-Jul-02 23:32N 47°43' W 052°25'31 2.2
2015-Jul-02 09:27N 47°38' W 053°11'0 0.2
2015-Jul-02 08:29N 47°38' W 053°11'0 0.0
2015-Jul-02 07:26N 47°38' W 053°11'0 0.0
2015-Jul-02 03:29N 47°38' W 053°11'0 0.0
2015-Jul-02 02:33N 47°38' W 053°11'0 0.2
2015-Jul-02 01:17N 47°38' W 053°11'25 6.6
2015-Jul-01 21:29N 47°32' W 052°35'1111.8
2015-Jul-01 20:31N 47°20' W 052°38'  

Dump ship's entire track history